首页
METAR-TAF:

METAR-TAF

机场 :

成都双流国际机场

成都, 中华人民共和国

纬度: 30-40N, 经度: 104-01E, 海拔: 508米

当前天气观测

该预报发布于57分钟前的01:00 UTC
风速16节,风向东北,在北转东北之间变化
温度 22°C
湿度 88%
气压 1012 hPa
能见度10公里或以上
散云层高于700英尺
少量云层高于2600英尺, 积雨云.
多云层高于2600英尺
小阵雨

METAR: ZUUU 260100Z 05008MPS 020V080 9999 -SHRA SCT007 FEW026CB BKN026 22/20 Q1012 NOSIG

时间: 09:57 (01:57 UTC)

预报

该预报发布于5小时和50分钟前的20:07 UTC
预报有效从26日的 00点(UTC)到 26日的 24点(UTC)
风速6节,风向北转东北
能見度: 5000
散云层高于4000英尺
轻雾
短暂存在
从 26日的 00点(UTC)到 26日的 02点(UTC)
少量云层高于3000英尺, 积雨云.
散云层高于3000英尺
小阵雨

TAF: ZUUU 252007Z 2600/2624 02003MPS 5000 BR SCT040 TX24/2607Z TN21/2600Z TEMPO 2600/2602 -SHRA FEW030CB SCT030

超过4000个机场的气象观测和天气预报(METAR&TAF报告)。

可查询的气象台以黄色和红色小点在地图上表示。

将鼠标移到小点上方,可查看气象台名称。

然后点击查看天气观测和预报。

如需切换地图:点击带黑十字的绿色按钮放大地图;点击带横线的绿色按钮缩小地图;或者点击绿色箭头查看邻近地区的地图。


METAR-TAF: